sensor_id;sensor_type;location;lat;lon;timestamp;P1;durP1;ratioP1;P2;durP2;ratioP2
40649;SDS011;26342;42.826;23.992;2023-04-21T00:01:09;1.55;;;1.45;;
40649;SDS011;26342;42.826;23.992;2023-04-21T00:03:37;2.13;;;1.52;;
40649;SDS011;26342;42.826;23.992;2023-04-21T00:06:03;3.47;;;1.45;;
40649;SDS011;26342;42.826;23.992;2023-04-21T00:08:34;1.50;;;0.63;;
40649;SDS011;26342;42.826;23.992;2023-04-21T00:11:08;1.25;;;0.95;;
40649;SDS011;26342;42.826;23.992;2023-04-21T00:13:35;0.80;;;0.80;;
40649;SDS011;26342;42.826;23.992;2023-04-21T00:16:02;2.33;;;1.48;;
40649;SDS011;26342;42.826;23.992;2023-04-21T00:18:27;0.90;;;0.90;;
40649;SDS011;26342;42.826;23.992;2023-04-21T00:20:53;2.63;;;0.93;;
40649;SDS011;26342;42.826;23.992;2023-04-21T00:23:19;4.47;;;1.48;;
40649;SDS011;26342;42.826;23.992;2023-04-21T00:25:44;2.88;;;2.58;;
40649;SDS011;26342;42.826;23.992;2023-04-21T00:28:10;1.85;;;1.35;;
40649;SDS011;26342;42.826;23.992;2023-04-21T00:30:36;0.20;;;0.20;;
40649;SDS011;26342;42.826;23.992;2023-04-21T00:33:01;2.63;;;1.38;;
40649;SDS011;26342;42.826;23.992;2023-04-21T00:35:27;1.00;;;0.93;;
40649;SDS011;26342;42.826;23.992;2023-04-21T00:37:56;10.20;;;2.63;;
40649;SDS011;26342;42.826;23.992;2023-04-21T00:40:22;1.70;;;1.00;;
40649;SDS011;26342;42.826;23.992;2023-04-21T00:42:47;0.75;;;0.43;;
40649;SDS011;26342;42.826;23.992;2023-04-21T00:45:13;7.03;;;1.55;;
40649;SDS011;26342;42.826;23.992;2023-04-21T00:47:39;0.50;;;0.50;;
40649;SDS011;26342;42.826;23.992;2023-04-21T00:50:05;1.80;;;1.27;;
40649;SDS011;26342;42.826;23.992;2023-04-21T00:52:35;1.20;;;0.70;;
40649;SDS011;26342;42.826;23.992;2023-04-21T00:55:01;2.33;;;1.15;;
40649;SDS011;26342;42.826;23.992;2023-04-21T00:57:27;1.70;;;1.50;;
40649;SDS011;26342;42.826;23.992;2023-04-21T00:59:53;0.70;;;0.68;;
40649;SDS011;26342;42.826;23.992;2023-04-21T01:02:19;2.20;;;1.25;;
40649;SDS011;26342;42.826;23.992;2023-04-21T01:04:47;1.35;;;1.23;;
40649;SDS011;26342;42.826;23.992;2023-04-21T01:07:13;0.30;;;0.30;;
40649;SDS011;26342;42.826;23.992;2023-04-21T01:09:38;2.35;;;1.10;;
40649;SDS011;26342;42.826;23.992;2023-04-21T01:12:08;3.83;;;1.13;;
40649;SDS011;26342;42.826;23.992;2023-04-21T01:14:35;5.10;;;2.00;;
40649;SDS011;26342;42.826;23.992;2023-04-21T01:17:02;2.47;;;1.77;;
40649;SDS011;26342;42.826;23.992;2023-04-21T01:19:31;1.27;;;0.88;;
40649;SDS011;26342;42.826;23.992;2023-04-21T01:21:58;4.28;;;2.03;;
40649;SDS011;26342;42.826;23.992;2023-04-21T01:24:34;1.95;;;1.70;;
40649;SDS011;26342;42.826;23.992;2023-04-21T01:27:07;2.45;;;0.75;;
40649;SDS011;26342;42.826;23.992;2023-04-21T01:29:38;1.00;;;1.00;;
40649;SDS011;26342;42.826;23.992;2023-04-21T01:32:15;2.83;;;1.33;;
40649;SDS011;26342;42.826;23.992;2023-04-21T01:34:42;1.63;;;1.52;;
40649;SDS011;26342;42.826;23.992;2023-04-21T01:37:09;0.60;;;0.60;;
40649;SDS011;26342;42.826;23.992;2023-04-21T01:39:37;2.20;;;2.00;;
40649;SDS011;26342;42.826;23.992;2023-04-21T01:42:07;0.50;;;0.50;;
40649;SDS011;26342;42.826;23.992;2023-04-21T01:44:34;0.70;;;0.70;;
40649;SDS011;26342;42.826;23.992;2023-04-21T01:47:00;1.15;;;1.02;;
40649;SDS011;26342;42.826;23.992;2023-04-21T01:49:26;1.60;;;1.38;;
40649;SDS011;26342;42.826;23.992;2023-04-21T01:51:52;2.38;;;1.48;;
40649;SDS011;26342;42.826;23.992;2023-04-21T01:54:19;2.35;;;0.98;;
40649;SDS011;26342;42.826;23.992;2023-04-21T02:00:33;5.22;;;1.55;;
40649;SDS011;26342;42.826;23.992;2023-04-21T02:02:59;4.20;;;0.80;;
40649;SDS011;26342;42.826;23.992;2023-04-21T02:05:24;1.85;;;1.08;;
40649;SDS011;26342;42.826;23.992;2023-04-21T02:07:50;1.40;;;0.98;;
40649;SDS011;26342;42.826;23.992;2023-04-21T02:10:15;0.93;;;0.43;;
40649;SDS011;26342;42.826;23.992;2023-04-21T02:12:41;0.63;;;0.57;;
40649;SDS011;26342;42.826;23.992;2023-04-21T02:15:07;4.95;;;1.20;;
40649;SDS011;26342;42.826;23.992;2023-04-21T02:17:33;17.65;;;1.17;;
40649;SDS011;26342;42.826;23.992;2023-04-21T02:19:59;0.60;;;0.60;;
40649;SDS011;26342;42.826;23.992;2023-04-21T02:22:27;1.10;;;0.85;;
40649;SDS011;26342;42.826;23.992;2023-04-21T02:24:58;0.90;;;0.85;;
40649;SDS011;26342;42.826;23.992;2023-04-21T02:27:26;0.63;;;0.63;;
40649;SDS011;26342;42.826;23.992;2023-04-21T02:29:52;4.80;;;1.35;;
40649;SDS011;26342;42.826;23.992;2023-04-21T02:32:17;2.05;;;0.73;;
40649;SDS011;26342;42.826;23.992;2023-04-21T02:34:52;2.00;;;1.80;;
40649;SDS011;26342;42.826;23.992;2023-04-21T02:37:18;2.78;;;1.67;;
40649;SDS011;26342;42.826;23.992;2023-04-21T02:39:44;0.20;;;0.20;;
40649;SDS011;26342;42.826;23.992;2023-04-21T02:42:10;2.33;;;1.42;;
40649;SDS011;26342;42.826;23.992;2023-04-21T02:44:38;2.90;;;1.33;;
40649;SDS011;26342;42.826;23.992;2023-04-21T02:47:08;1.92;;;0.55;;
40649;SDS011;26342;42.826;23.992;2023-04-21T02:49:38;1.40;;;1.25;;
40649;SDS011;26342;42.826;23.992;2023-04-21T02:52:11;2.42;;;1.05;;
40649;SDS011;26342;42.826;23.992;2023-04-21T02:54:40;0.95;;;0.95;;
40649;SDS011;26342;42.826;23.992;2023-04-21T02:57:13;3.33;;;1.65;;
40649;SDS011;26342;42.826;23.992;2023-04-21T02:59:46;3.47;;;2.30;;
40649;SDS011;26342;42.826;23.992;2023-04-21T03:02:15;6.85;;;2.63;;
40649;SDS011;26342;42.826;23.992;2023-04-21T03:04:41;1.73;;;1.45;;
40649;SDS011;26342;42.826;23.992;2023-04-21T03:07:10;3.42;;;1.35;;
40649;SDS011;26342;42.826;23.992;2023-04-21T03:09:37;3.03;;;1.35;;
40649;SDS011;26342;42.826;23.992;2023-04-21T03:12:04;1.40;;;1.17;;
40649;SDS011;26342;42.826;23.992;2023-04-21T03:14:29;1.67;;;1.50;;
40649;SDS011;26342;42.826;23.992;2023-04-21T03:16:57;3.65;;;1.50;;
40649;SDS011;26342;42.826;23.992;2023-04-21T03:19:25;1.20;;;0.88;;
40649;SDS011;26342;42.826;23.992;2023-04-21T03:21:50;0.85;;;0.55;;
40649;SDS011;26342;42.826;23.992;2023-04-21T03:24:16;1.63;;;1.52;;
40649;SDS011;26342;42.826;23.992;2023-04-21T03:26:43;2.55;;;1.48;;
40649;SDS011;26342;42.826;23.992;2023-04-21T03:29:08;9.48;;;1.75;;
40649;SDS011;26342;42.826;23.992;2023-04-21T03:31:34;4.97;;;0.95;;
40649;SDS011;26342;42.826;23.992;2023-04-21T03:33:59;1.00;;;1.00;;
40649;SDS011;26342;42.826;23.992;2023-04-21T03:36:25;1.98;;;1.35;;
40649;SDS011;26342;42.826;23.992;2023-04-21T03:38:50;0.65;;;0.65;;
40649;SDS011;26342;42.826;23.992;2023-04-21T03:41:17;2.05;;;0.93;;
40649;SDS011;26342;42.826;23.992;2023-04-21T03:43:43;1.80;;;0.80;;
40649;SDS011;26342;42.826;23.992;2023-04-21T03:46:17;1.50;;;1.35;;
40649;SDS011;26342;42.826;23.992;2023-04-21T03:48:43;5.15;;;1.23;;
40649;SDS011;26342;42.826;23.992;2023-04-21T03:51:09;0.63;;;0.63;;
40649;SDS011;26342;42.826;23.992;2023-04-21T03:53:34;7.82;;;1.80;;
40649;SDS011;26342;42.826;23.992;2023-04-21T03:56:00;2.75;;;1.95;;
40649;SDS011;26342;42.826;23.992;2023-04-21T03:58:26;3.05;;;2.78;;
40649;SDS011;26342;42.826;23.992;2023-04-21T04:00:51;6.65;;;4.72;;
40649;SDS011;26342;42.826;23.992;2023-04-21T04:03:17;6.97;;;3.40;;
40649;SDS011;26342;42.826;23.992;2023-04-21T04:05:43;5.80;;;4.18;;
40649;SDS011;26342;42.826;23.992;2023-04-21T04:08:09;3.78;;;2.63;;
40649;SDS011;26342;42.826;23.992;2023-04-21T04:10:34;6.50;;;5.18;;
40649;SDS011;26342;42.826;23.992;2023-04-21T04:13:02;5.07;;;3.33;;
40649;SDS011;26342;42.826;23.992;2023-04-21T04:15:27;2.10;;;1.92;;
40649;SDS011;26342;42.826;23.992;2023-04-21T04:17:53;6.80;;;3.35;;
40649;SDS011;26342;42.826;23.992;2023-04-21T04:20:19;5.35;;;2.97;;
40649;SDS011;26342;42.826;23.992;2023-04-21T04:22:45;3.97;;;3.38;;
40649;SDS011;26342;42.826;23.992;2023-04-21T04:25:10;6.15;;;1.95;;
40649;SDS011;26342;42.826;23.992;2023-04-21T04:27:38;2.13;;;1.58;;
40649;SDS011;26342;42.826;23.992;2023-04-21T04:30:04;4.80;;;3.42;;
40649;SDS011;26342;42.826;23.992;2023-04-21T04:32:31;2.42;;;2.22;;
40649;SDS011;26342;42.826;23.992;2023-04-21T04:34:58;6.22;;;1.95;;
40649;SDS011;26342;42.826;23.992;2023-04-21T04:37:23;2.60;;;1.70;;
40649;SDS011;26342;42.826;23.992;2023-04-21T04:39:53;2.10;;;1.88;;
40649;SDS011;26342;42.826;23.992;2023-04-21T04:42:20;2.17;;;1.48;;
40649;SDS011;26342;42.826;23.992;2023-04-21T04:44:47;1.45;;;1.33;;
40649;SDS011;26342;42.826;23.992;2023-04-21T04:47:16;2.45;;;1.63;;
40649;SDS011;26342;42.826;23.992;2023-04-21T04:49:42;1.85;;;1.35;;
40649;SDS011;26342;42.826;23.992;2023-04-21T04:52:07;6.55;;;3.05;;
40649;SDS011;26342;42.826;23.992;2023-04-21T04:54:34;7.18;;;2.28;;
40649;SDS011;26342;42.826;23.992;2023-04-21T04:57:00;6.85;;;5.07;;
40649;SDS011;26342;42.826;23.992;2023-04-21T04:59:26;3.63;;;3.33;;
40649;SDS011;26342;42.826;23.992;2023-04-21T05:01:52;4.90;;;3.97;;
40649;SDS011;26342;42.826;23.992;2023-04-21T05:04:19;5.38;;;4.07;;
40649;SDS011;26342;42.826;23.992;2023-04-21T05:06:44;9.15;;;3.70;;
40649;SDS011;26342;42.826;23.992;2023-04-21T05:09:10;4.15;;;3.03;;
40649;SDS011;26342;42.826;23.992;2023-04-21T05:11:36;4.78;;;2.83;;
40649;SDS011;26342;42.826;23.992;2023-04-21T05:14:01;3.42;;;2.35;;
40649;SDS011;26342;42.826;23.992;2023-04-21T05:16:27;8.18;;;4.55;;
40649;SDS011;26342;42.826;23.992;2023-04-21T05:18:53;2.35;;;2.15;;
40649;SDS011;26342;42.826;23.992;2023-04-21T05:21:23;5.28;;;3.85;;
40649;SDS011;26342;42.826;23.992;2023-04-21T05:23:56;4.13;;;2.75;;
40649;SDS011;26342;42.826;23.992;2023-04-21T05:26:23;12.32;;;4.57;;
40649;SDS011;26342;42.826;23.992;2023-04-21T05:28:51;3.88;;;2.22;;
40649;SDS011;26342;42.826;23.992;2023-04-21T05:31:17;3.63;;;2.45;;
40649;SDS011;26342;42.826;23.992;2023-04-21T05:33:42;5.70;;;4.65;;
40649;SDS011;26342;42.826;23.992;2023-04-21T05:36:08;5.25;;;4.72;;
40649;SDS011;26342;42.826;23.992;2023-04-21T05:38:34;5.15;;;3.85;;
40649;SDS011;26342;42.826;23.992;2023-04-21T05:41:01;5.22;;;4.07;;
40649;SDS011;26342;42.826;23.992;2023-04-21T05:43:27;7.07;;;6.05;;
40649;SDS011;26342;42.826;23.992;2023-04-21T05:45:53;27.00;;;7.53;;
40649;SDS011;26342;42.826;23.992;2023-04-21T05:48:19;6.47;;;4.85;;
40649;SDS011;26342;42.826;23.992;2023-04-21T05:50:45;5.97;;;3.58;;
40649;SDS011;26342;42.826;23.992;2023-04-21T05:53:10;12.25;;;5.40;;
40649;SDS011;26342;42.826;23.992;2023-04-21T05:55:36;4.05;;;3.67;;
40649;SDS011;26342;42.826;23.992;2023-04-21T05:58:02;10.38;;;5.22;;
40649;SDS011;26342;42.826;23.992;2023-04-21T06:00:28;13.38;;;5.80;;
40649;SDS011;26342;42.826;23.992;2023-04-21T06:02:54;10.00;;;6.15;;
40649;SDS011;26342;42.826;23.992;2023-04-21T06:05:21;7.82;;;4.50;;
40649;SDS011;26342;42.826;23.992;2023-04-21T06:07:47;5.18;;;3.65;;
40649;SDS011;26342;42.826;23.992;2023-04-21T06:10:12;2.50;;;2.35;;
40649;SDS011;26342;42.826;23.992;2023-04-21T06:12:39;4.22;;;3.65;;
40649;SDS011;26342;42.826;23.992;2023-04-21T06:15:06;11.95;;;5.15;;
40649;SDS011;26342;42.826;23.992;2023-04-21T06:17:32;9.40;;;5.55;;
40649;SDS011;26342;42.826;23.992;2023-04-21T06:19:57;12.48;;;4.88;;
40649;SDS011;26342;42.826;23.992;2023-04-21T06:22:24;6.70;;;4.10;;
40649;SDS011;26342;42.826;23.992;2023-04-21T06:24:50;8.40;;;3.80;;
40649;SDS011;26342;42.826;23.992;2023-04-21T06:27:15;4.85;;;4.13;;
40649;SDS011;26342;42.826;23.992;2023-04-21T06:29:41;5.60;;;4.03;;
40649;SDS011;26342;42.826;23.992;2023-04-21T06:32:08;23.27;;;4.68;;
40649;SDS011;26342;42.826;23.992;2023-04-21T06:34:34;6.13;;;2.95;;
40649;SDS011;26342;42.826;23.992;2023-04-21T06:37:00;6.93;;;4.80;;
40649;SDS011;26342;42.826;23.992;2023-04-21T06:39:26;7.05;;;5.35;;
40649;SDS011;26342;42.826;23.992;2023-04-21T06:41:51;4.40;;;4.00;;
40649;SDS011;26342;42.826;23.992;2023-04-21T06:44:17;3.47;;;2.13;;
40649;SDS011;26342;42.826;23.992;2023-04-21T06:46:43;5.90;;;3.15;;
40649;SDS011;26342;42.826;23.992;2023-04-21T06:49:09;3.78;;;3.38;;
40649;SDS011;26342;42.826;23.992;2023-04-21T06:51:35;5.53;;;3.33;;
40649;SDS011;26342;42.826;23.992;2023-04-21T06:54:01;4.68;;;3.25;;
40649;SDS011;26342;42.826;23.992;2023-04-21T06:56:28;2.95;;;2.75;;
40649;SDS011;26342;42.826;23.992;2023-04-21T06:58:55;7.05;;;5.32;;
40649;SDS011;26342;42.826;23.992;2023-04-21T07:01:20;3.85;;;3.30;;
40649;SDS011;26342;42.826;23.992;2023-04-21T07:03:48;12.35;;;5.78;;
40649;SDS011;26342;42.826;23.992;2023-04-21T07:06:14;6.65;;;5.05;;
40649;SDS011;26342;42.826;23.992;2023-04-21T07:08:39;10.50;;;5.18;;
40649;SDS011;26342;42.826;23.992;2023-04-21T07:11:05;9.93;;;4.97;;
40649;SDS011;26342;42.826;23.992;2023-04-21T07:13:31;6.18;;;4.85;;
40649;SDS011;26342;42.826;23.992;2023-04-21T07:15:56;6.13;;;5.63;;
40649;SDS011;26342;42.826;23.992;2023-04-21T07:18:22;6.68;;;5.65;;
40649;SDS011;26342;42.826;23.992;2023-04-21T07:20:47;10.15;;;8.63;;
40649;SDS011;26342;42.826;23.992;2023-04-21T07:23:13;10.70;;;4.25;;
40649;SDS011;26342;42.826;23.992;2023-04-21T07:25:38;2.80;;;2.60;;
40649;SDS011;26342;42.826;23.992;2023-04-21T07:28:05;5.05;;;2.72;;
40649;SDS011;26342;42.826;23.992;2023-04-21T07:30:31;3.97;;;2.95;;
40649;SDS011;26342;42.826;23.992;2023-04-21T07:32:57;2.50;;;2.17;;
40649;SDS011;26342;42.826;23.992;2023-04-21T07:35:25;2.70;;;1.85;;
40649;SDS011;26342;42.826;23.992;2023-04-21T07:37:51;3.78;;;2.28;;
40649;SDS011;26342;42.826;23.992;2023-04-21T07:40:16;5.82;;;2.47;;
40649;SDS011;26342;42.826;23.992;2023-04-21T07:42:41;2.70;;;2.40;;
40649;SDS011;26342;42.826;23.992;2023-04-21T07:45:07;2.55;;;1.33;;
40649;SDS011;26342;42.826;23.992;2023-04-21T07:47:33;2.00;;;1.05;;
40649;SDS011;26342;42.826;23.992;2023-04-21T07:49:59;2.38;;;2.17;;
40649;SDS011;26342;42.826;23.992;2023-04-21T07:52:25;0.90;;;0.85;;
40649;SDS011;26342;42.826;23.992;2023-04-21T07:54:50;1.50;;;1.30;;
40649;SDS011;26342;42.826;23.992;2023-04-21T07:57:20;1.17;;;0.82;;
40649;SDS011;26342;42.826;23.992;2023-04-21T07:59:46;1.88;;;1.15;;
40649;SDS011;26342;42.826;23.992;2023-04-21T08:02:11;2.03;;;1.65;;
40649;SDS011;26342;42.826;23.992;2023-04-21T08:04:37;1.30;;;1.10;;
40649;SDS011;26342;42.826;23.992;2023-04-21T08:07:02;0.50;;;0.50;;
40649;SDS011;26342;42.826;23.992;2023-04-21T08:09:31;3.47;;;0.65;;
40649;SDS011;26342;42.826;23.992;2023-04-21T08:11:58;0.95;;;0.93;;
40649;SDS011;26342;42.826;23.992;2023-04-21T08:14:23;0.57;;;0.57;;
40649;SDS011;26342;42.826;23.992;2023-04-21T08:16:50;1.08;;;0.68;;
40649;SDS011;26342;42.826;23.992;2023-04-21T08:19:16;1.00;;;1.00;;
40649;SDS011;26342;42.826;23.992;2023-04-21T08:21:41;1.20;;;1.10;;
40649;SDS011;26342;42.826;23.992;2023-04-21T08:24:07;1.52;;;1.42;;
40649;SDS011;26342;42.826;23.992;2023-04-21T08:26:33;0.43;;;0.43;;
40649;SDS011;26342;42.826;23.992;2023-04-21T08:28:59;1.60;;;1.00;;
40649;SDS011;26342;42.826;23.992;2023-04-21T08:31:25;1.13;;;0.60;;
40649;SDS011;26342;42.826;23.992;2023-04-21T08:33:52;1.02;;;0.70;;
40649;SDS011;26342;42.826;23.992;2023-04-21T08:36:18;2.75;;;1.15;;
40649;SDS011;26342;42.826;23.992;2023-04-21T08:38:44;1.25;;;0.60;;
40649;SDS011;26342;42.826;23.992;2023-04-21T08:41:10;1.08;;;0.73;;
40649;SDS011;26342;42.826;23.992;2023-04-21T08:43:35;2.08;;;1.50;;
40649;SDS011;26342;42.826;23.992;2023-04-21T08:46:05;0.47;;;0.47;;
40649;SDS011;26342;42.826;23.992;2023-04-21T08:48:33;0.80;;;0.80;;
40649;SDS011;26342;42.826;23.992;2023-04-21T08:51:01;2.33;;;0.90;;
40649;SDS011;26342;42.826;23.992;2023-04-21T08:53:27;0.77;;;0.65;;
40649;SDS011;26342;42.826;23.992;2023-04-21T08:55:54;0.50;;;0.50;;
40649;SDS011;26342;42.826;23.992;2023-04-21T08:58:20;0.20;;;0.20;;
40649;SDS011;26342;42.826;23.992;2023-04-21T09:00:49;2.45;;;0.95;;
40649;SDS011;26342;42.826;23.992;2023-04-21T09:03:21;0.55;;;0.55;;
40649;SDS011;26342;42.826;23.992;2023-04-21T09:05:58;0.80;;;0.80;;
40649;SDS011;26342;42.826;23.992;2023-04-21T09:08:23;2.00;;;0.60;;
40649;SDS011;26342;42.826;23.992;2023-04-21T09:10:51;2.92;;;2.13;;
40649;SDS011;26342;42.826;23.992;2023-04-21T09:13:18;2.03;;;1.83;;
40649;SDS011;26342;42.826;23.992;2023-04-21T09:15:45;0.22;;;0.22;;
40649;SDS011;26342;42.826;23.992;2023-04-21T09:18:17;0.85;;;0.60;;
40649;SDS011;26342;42.826;23.992;2023-04-21T09:20:44;0.77;;;0.77;;
40649;SDS011;26342;42.826;23.992;2023-04-21T09:23:11;1.25;;;1.15;;
40649;SDS011;26342;42.826;23.992;2023-04-21T09:25:37;1.38;;;1.27;;
40649;SDS011;26342;42.826;23.992;2023-04-21T09:28:12;0.30;;;0.30;;
40649;SDS011;26342;42.826;23.992;2023-04-21T09:30:39;0.73;;;0.73;;
40649;SDS011;26342;42.826;23.992;2023-04-21T09:33:07;0.77;;;0.77;;
40649;SDS011;26342;42.826;23.992;2023-04-21T09:35:38;0.82;;;0.57;;
40649;SDS011;26342;42.826;23.992;2023-04-21T09:38:08;5.72;;;1.48;;
40649;SDS011;26342;42.826;23.992;2023-04-21T09:40:37;0.63;;;0.57;;
40649;SDS011;26342;42.826;23.992;2023-04-21T09:43:03;3.45;;;1.42;;
40649;SDS011;26342;42.826;23.992;2023-04-21T09:45:29;0.40;;;0.40;;
40649;SDS011;26342;42.826;23.992;2023-04-21T09:47:58;0.40;;;0.40;;
40649;SDS011;26342;42.826;23.992;2023-04-21T09:50:25;1.05;;;0.93;;
40649;SDS011;26342;42.826;23.992;2023-04-21T09:52:52;0.82;;;0.80;;
40649;SDS011;26342;42.826;23.992;2023-04-21T09:55:21;0.60;;;0.60;;
40649;SDS011;26342;42.826;23.992;2023-04-21T09:57:51;0.65;;;0.60;;
40649;SDS011;26342;42.826;23.992;2023-04-21T10:00:21;2.13;;;1.20;;
40649;SDS011;26342;42.826;23.992;2023-04-21T10:02:56;0.73;;;0.63;;
40649;SDS011;26342;42.826;23.992;2023-04-21T10:05:22;0.68;;;0.68;;
40649;SDS011;26342;42.826;23.992;2023-04-21T10:07:49;0.80;;;0.60;;
40649;SDS011;26342;42.826;23.992;2023-04-21T10:10:25;1.42;;;1.27;;
40649;SDS011;26342;42.826;23.992;2023-04-21T10:12:55;0.85;;;0.70;;
40649;SDS011;26342;42.826;23.992;2023-04-21T10:15:32;1.27;;;1.13;;
40649;SDS011;26342;42.826;23.992;2023-04-21T10:23:24;0.88;;;0.88;;
40649;SDS011;26342;42.826;23.992;2023-04-21T10:31:31;1.42;;;0.77;;
40649;SDS011;26342;42.826;23.992;2023-04-21T10:41:57;2.58;;;0.98;;
40649;SDS011;26342;42.826;23.992;2023-04-21T10:44:59;1.15;;;0.80;;
40649;SDS011;26342;42.826;23.992;2023-04-21T10:55:20;1.35;;;1.10;;
40649;SDS011;26342;42.826;23.992;2023-04-21T10:57:50;1.02;;;0.80;;
40649;SDS011;26342;42.826;23.992;2023-04-21T11:00:34;0.47;;;0.47;;
40649;SDS011;26342;42.826;23.992;2023-04-21T11:03:03;0.88;;;0.85;;
40649;SDS011;26342;42.826;23.992;2023-04-21T11:05:35;1.40;;;1.30;;
40649;SDS011;26342;42.826;23.992;2023-04-21T11:08:05;0.40;;;0.40;;
40649;SDS011;26342;42.826;23.992;2023-04-21T11:10:47;0.93;;;0.80;;
40649;SDS011;26342;42.826;23.992;2023-04-21T11:13:15;0.45;;;0.30;;
40649;SDS011;26342;42.826;23.992;2023-04-21T11:15:41;0.50;;;0.43;;
40649;SDS011;26342;42.826;23.992;2023-04-21T11:18:19;0.43;;;0.43;;
40649;SDS011;26342;42.826;23.992;2023-04-21T11:20:44;1.02;;;0.80;;
40649;SDS011;26342;42.826;23.992;2023-04-21T11:23:15;0.95;;;0.90;;
40649;SDS011;26342;42.826;23.992;2023-04-21T11:25:44;0.65;;;0.52;;
40649;SDS011;26342;42.826;23.992;2023-04-21T11:28:10;0.52;;;0.52;;
40649;SDS011;26342;42.826;23.992;2023-04-21T11:33:37;0.68;;;0.47;;
40649;SDS011;26342;42.826;23.992;2023-04-21T11:36:06;0.63;;;0.63;;
40649;SDS011;26342;42.826;23.992;2023-04-21T11:38:41;0.65;;;0.65;;
40649;SDS011;26342;42.826;23.992;2023-04-21T11:41:06;2.97;;;1.38;;
40649;SDS011;26342;42.826;23.992;2023-04-21T11:43:36;0.65;;;0.65;;
40649;SDS011;26342;42.826;23.992;2023-04-21T11:49:04;0.45;;;0.45;;
40649;SDS011;26342;42.826;23.992;2023-04-21T11:51:40;1.00;;;0.90;;
40649;SDS011;26342;42.826;23.992;2023-04-21T11:54:07;1.45;;;0.80;;
40649;SDS011;26342;42.826;23.992;2023-04-21T11:56:38;0.35;;;0.35;;
40649;SDS011;26342;42.826;23.992;2023-04-21T11:59:11;1.30;;;0.57;;
40649;SDS011;26342;42.826;23.992;2023-04-21T12:01:44;0.50;;;0.47;;
40649;SDS011;26342;42.826;23.992;2023-04-21T12:04:14;2.63;;;0.90;;
40649;SDS011;26342;42.826;23.992;2023-04-21T12:06:43;7.10;;;3.83;;
40649;SDS011;26342;42.826;23.992;2023-04-21T12:09:18;1.10;;;1.00;;
40649;SDS011;26342;42.826;23.992;2023-04-21T12:14:14;0.10;;;0.10;;
40649;SDS011;26342;42.826;23.992;2023-04-21T12:16:40;1.30;;;1.13;;
40649;SDS011;26342;42.826;23.992;2023-04-21T12:19:06;1.88;;;1.13;;
40649;SDS011;26342;42.826;23.992;2023-04-21T12:21:32;0.30;;;0.30;;
40649;SDS011;26342;42.826;23.992;2023-04-21T12:23:57;0.50;;;0.50;;
40649;SDS011;26342;42.826;23.992;2023-04-21T12:26:23;1.25;;;1.15;;
40649;SDS011;26342;42.826;23.992;2023-04-21T12:28:49;0.38;;;0.38;;
40649;SDS011;26342;42.826;23.992;2023-04-21T12:31:20;0.55;;;0.47;;
40649;SDS011;26342;42.826;23.992;2023-04-21T12:33:45;0.88;;;0.73;;
40649;SDS011;26342;42.826;23.992;2023-04-21T12:36:11;0.80;;;0.70;;
40649;SDS011;26342;42.826;23.992;2023-04-21T12:38:36;0.50;;;0.50;;
40649;SDS011;26342;42.826;23.992;2023-04-21T12:41:03;0.70;;;0.70;;
40649;SDS011;26342;42.826;23.992;2023-04-21T12:43:28;0.60;;;0.50;;
40649;SDS011;26342;42.826;23.992;2023-04-21T12:45:54;2.40;;;0.40;;
40649;SDS011;26342;42.826;23.992;2023-04-21T12:48:20;1.40;;;0.90;;
40649;SDS011;26342;42.826;23.992;2023-04-21T12:50:45;0.88;;;0.47;;
40649;SDS011;26342;42.826;23.992;2023-04-21T12:53:11;2.97;;;2.08;;
40649;SDS011;26342;42.826;23.992;2023-04-21T12:55:37;0.60;;;0.60;;
40649;SDS011;26342;42.826;23.992;2023-04-21T12:58:03;0.55;;;0.52;;
40649;SDS011;26342;42.826;23.992;2023-04-21T13:00:28;5.55;;;1.23;;
40649;SDS011;26342;42.826;23.992;2023-04-21T13:02:54;1.85;;;1.63;;
40649;SDS011;26342;42.826;23.992;2023-04-21T13:05:24;2.45;;;1.13;;
40649;SDS011;26342;42.826;23.992;2023-04-21T13:07:50;1.85;;;1.50;;
40649;SDS011;26342;42.826;23.992;2023-04-21T13:10:16;1.58;;;1.10;;
40649;SDS011;26342;42.826;23.992;2023-04-21T13:12:41;0.60;;;0.60;;
40649;SDS011;26342;42.826;23.992;2023-04-21T13:15:07;0.80;;;0.80;;
40649;SDS011;26342;42.826;23.992;2023-04-21T13:17:33;0.50;;;0.50;;
40649;SDS011;26342;42.826;23.992;2023-04-21T13:19:59;2.22;;;0.75;;
40649;SDS011;26342;42.826;23.992;2023-04-21T13:22:25;0.65;;;0.65;;
40649;SDS011;26342;42.826;23.992;2023-04-21T13:24:50;1.15;;;1.05;;
40649;SDS011;26342;42.826;23.992;2023-04-21T13:27:16;1.77;;;0.82;;
40649;SDS011;26342;42.826;23.992;2023-04-21T13:29:43;0.60;;;0.60;;
40649;SDS011;26342;42.826;23.992;2023-04-21T13:32:09;1.10;;;0.98;;
40649;SDS011;26342;42.826;23.992;2023-04-21T13:34:39;1.30;;;1.20;;
40649;SDS011;26342;42.826;23.992;2023-04-21T13:37:35;1.48;;;0.93;;
40649;SDS011;26342;42.826;23.992;2023-04-21T13:40:02;1.50;;;0.80;;
40649;SDS011;26342;42.826;23.992;2023-04-21T13:42:28;0.68;;;0.68;;
40649;SDS011;26342;42.826;23.992;2023-04-21T13:44:54;1.50;;;1.05;;
40649;SDS011;26342;42.826;23.992;2023-04-21T13:47:19;1.38;;;0.85;;
40649;SDS011;26342;42.826;23.992;2023-04-21T13:49:45;0.52;;;0.52;;
40649;SDS011;26342;42.826;23.992;2023-04-21T13:52:10;0.52;;;0.52;;
40649;SDS011;26342;42.826;23.992;2023-04-21T13:54:43;1.48;;;0.82;;
40649;SDS011;26342;42.826;23.992;2023-04-21T13:57:08;1.27;;;1.17;;
40649;SDS011;26342;42.826;23.992;2023-04-21T13:59:34;0.30;;;0.30;;
40649;SDS011;26342;42.826;23.992;2023-04-21T14:02:00;0.65;;;0.60;;
40649;SDS011;26342;42.826;23.992;2023-04-21T14:04:26;0.40;;;0.40;;
40649;SDS011;26342;42.826;23.992;2023-04-21T14:06:51;4.30;;;1.33;;
40649;SDS011;26342;42.826;23.992;2023-04-21T14:09:17;0.80;;;0.80;;
40649;SDS011;26342;42.826;23.992;2023-04-21T14:11:42;1.05;;;0.98;;
40649;SDS011;26342;42.826;23.992;2023-04-21T14:14:08;2.35;;;1.08;;
40649;SDS011;26342;42.826;23.992;2023-04-21T14:16:33;0.60;;;0.43;;
40649;SDS011;26342;42.826;23.992;2023-04-21T14:18:58;0.30;;;0.30;;
40649;SDS011;26342;42.826;23.992;2023-04-21T14:21:24;1.48;;;1.08;;
40649;SDS011;26342;42.826;23.992;2023-04-21T14:23:50;0.40;;;0.40;;
40649;SDS011;26342;42.826;23.992;2023-04-21T14:26:15;0.30;;;0.30;;
40649;SDS011;26342;42.826;23.992;2023-04-21T14:28:41;1.92;;;0.95;;
40649;SDS011;26342;42.826;23.992;2023-04-21T14:31:07;0.57;;;0.57;;
40649;SDS011;26342;42.826;23.992;2023-04-21T14:33:34;0.20;;;0.20;;
40649;SDS011;26342;42.826;23.992;2023-04-21T14:35:59;0.20;;;0.20;;
40649;SDS011;26342;42.826;23.992;2023-04-21T14:38:25;2.67;;;2.47;;
40649;SDS011;26342;42.826;23.992;2023-04-21T14:40:50;2.10;;;0.80;;
40649;SDS011;26342;42.826;23.992;2023-04-21T14:43:19;0.43;;;0.43;;
40649;SDS011;26342;42.826;23.992;2023-04-21T14:45:45;0.35;;;0.35;;
40649;SDS011;26342;42.826;23.992;2023-04-21T14:48:11;0.45;;;0.45;;
40649;SDS011;26342;42.826;23.992;2023-04-21T14:50:38;1.20;;;1.00;;
40649;SDS011;26342;42.826;23.992;2023-04-21T14:53:04;1.10;;;0.95;;
40649;SDS011;26342;42.826;23.992;2023-04-21T14:55:29;0.50;;;0.47;;
40649;SDS011;26342;42.826;23.992;2023-04-21T14:57:55;1.48;;;1.38;;
40649;SDS011;26342;42.826;23.992;2023-04-21T15:00:21;0.88;;;0.75;;
40649;SDS011;26342;42.826;23.992;2023-04-21T15:02:47;1.10;;;0.65;;
40649;SDS011;26342;42.826;23.992;2023-04-21T15:05:13;0.25;;;0.20;;
40649;SDS011;26342;42.826;23.992;2023-04-21T15:07:39;0.90;;;0.45;;
40649;SDS011;26342;42.826;23.992;2023-04-21T15:10:07;4.85;;;2.53;;
40649;SDS011;26342;42.826;23.992;2023-04-21T15:12:34;1.80;;;1.00;;